Terminal Aerodrome Forecast
Issued by NWS Cleveland, OH

Current Version | Previous Version | Text Only | Print | Product List | Glossary On
Versions: 1 2 3 4 5 6 7 8 9 10 11 12 13 14
000
FTUS41 KCLE 232320
TAFMFD
TAF
KMFD 232320Z 2400/2424 19015G25KT P6SM -SHRA BKN040
      TEMPO 2400/2404 BKN025
     FM240400 22015G25KT P6SM VCSH OVC050
     FM241200 19014G22KT P6SM VCSH OVC015
     FM241500 20015G25KT P6SM VCSH BKN030=

USA.gov is the U.S. government's official web portal to all federal, state and local government web resources and services.